sensor_id;sensor_type;location;lat;lon;timestamp;P1;durP1;ratioP1;P2;durP2;ratioP2
20344;SDS011;10330;48.816;9.278;2022-12-08T00:01:58;12.60;;;7.15;;
20344;SDS011;10330;48.816;9.278;2022-12-08T00:04:28;11.75;;;6.30;;
20344;SDS011;10330;48.816;9.278;2022-12-08T00:07:15;12.20;;;7.00;;
20344;SDS011;10330;48.816;9.278;2022-12-08T00:09:59;11.97;;;6.43;;
20344;SDS011;10330;48.816;9.278;2022-12-08T00:12:25;12.00;;;7.10;;
20344;SDS011;10330;48.816;9.278;2022-12-08T00:14:51;16.08;;;7.10;;
20344;SDS011;10330;48.816;9.278;2022-12-08T00:17:19;11.45;;;7.22;;
20344;SDS011;10330;48.816;9.278;2022-12-08T00:19:45;13.60;;;6.73;;
20344;SDS011;10330;48.816;9.278;2022-12-08T00:22:11;12.55;;;6.78;;
20344;SDS011;10330;48.816;9.278;2022-12-08T00:24:39;13.33;;;6.97;;
20344;SDS011;10330;48.816;9.278;2022-12-08T00:27:07;15.07;;;7.27;;
20344;SDS011;10330;48.816;9.278;2022-12-08T00:29:34;9.82;;;6.32;;
20344;SDS011;10330;48.816;9.278;2022-12-08T00:32:01;10.60;;;6.23;;
20344;SDS011;10330;48.816;9.278;2022-12-08T00:34:27;10.17;;;5.53;;
20344;SDS011;10330;48.816;9.278;2022-12-08T00:36:53;11.82;;;6.75;;
20344;SDS011;10330;48.816;9.278;2022-12-08T00:39:19;11.55;;;6.68;;
20344;SDS011;10330;48.816;9.278;2022-12-08T00:41:46;11.80;;;6.82;;
20344;SDS011;10330;48.816;9.278;2022-12-08T00:44:31;10.40;;;6.10;;
20344;SDS011;10330;48.816;9.278;2022-12-08T00:46:57;10.73;;;6.43;;
20344;SDS011;10330;48.816;9.278;2022-12-08T00:49:24;10.90;;;6.20;;
20344;SDS011;10330;48.816;9.278;2022-12-08T00:51:53;11.70;;;6.95;;
20344;SDS011;10330;48.816;9.278;2022-12-08T00:54:20;14.63;;;6.68;;
20344;SDS011;10330;48.816;9.278;2022-12-08T00:56:47;12.32;;;6.30;;
20344;SDS011;10330;48.816;9.278;2022-12-08T00:59:14;10.43;;;6.43;;
20344;SDS011;10330;48.816;9.278;2022-12-08T01:01:42;14.37;;;6.60;;
20344;SDS011;10330;48.816;9.278;2022-12-08T01:04:13;15.03;;;7.77;;
20344;SDS011;10330;48.816;9.278;2022-12-08T01:06:41;16.83;;;7.73;;
20344;SDS011;10330;48.816;9.278;2022-12-08T01:09:11;11.50;;;7.93;;
20344;SDS011;10330;48.816;9.278;2022-12-08T01:11:39;12.47;;;7.70;;
20344;SDS011;10330;48.816;9.278;2022-12-08T01:14:05;13.95;;;7.32;;
20344;SDS011;10330;48.816;9.278;2022-12-08T01:16:32;13.17;;;6.97;;
20344;SDS011;10330;48.816;9.278;2022-12-08T01:19:02;20.83;;;8.27;;
20344;SDS011;10330;48.816;9.278;2022-12-08T01:21:32;15.60;;;7.83;;
20344;SDS011;10330;48.816;9.278;2022-12-08T01:23:59;14.60;;;8.53;;
20344;SDS011;10330;48.816;9.278;2022-12-08T01:26:25;15.83;;;8.33;;
20344;SDS011;10330;48.816;9.278;2022-12-08T01:28:54;19.50;;;9.43;;
20344;SDS011;10330;48.816;9.278;2022-12-08T01:31:21;18.90;;;9.03;;
20344;SDS011;10330;48.816;9.278;2022-12-08T01:33:48;17.53;;;8.93;;
20344;SDS011;10330;48.816;9.278;2022-12-08T01:36:19;13.33;;;7.83;;
20344;SDS011;10330;48.816;9.278;2022-12-08T01:38:51;17.33;;;9.07;;
20344;SDS011;10330;48.816;9.278;2022-12-08T01:41:18;24.27;;;9.80;;
20344;SDS011;10330;48.816;9.278;2022-12-08T01:46:29;16.83;;;8.40;;
20344;SDS011;10330;48.816;9.278;2022-12-08T01:48:59;16.40;;;9.00;;
20344;SDS011;10330;48.816;9.278;2022-12-08T01:51:31;18.83;;;8.63;;
20344;SDS011;10330;48.816;9.278;2022-12-08T01:54:02;16.27;;;8.60;;
20344;SDS011;10330;48.816;9.278;2022-12-08T01:56:50;19.50;;;8.57;;
20344;SDS011;10330;48.816;9.278;2022-12-08T01:59:23;20.07;;;8.83;;
20344;SDS011;10330;48.816;9.278;2022-12-08T02:01:50;13.03;;;8.10;;
20344;SDS011;10330;48.816;9.278;2022-12-08T02:04:17;18.77;;;9.03;;
20344;SDS011;10330;48.816;9.278;2022-12-08T02:06:43;18.50;;;9.20;;
20344;SDS011;10330;48.816;9.278;2022-12-08T02:09:12;15.33;;;9.17;;
20344;SDS011;10330;48.816;9.278;2022-12-08T02:11:39;17.60;;;9.43;;
20344;SDS011;10330;48.816;9.278;2022-12-08T02:14:06;16.63;;;8.73;;
20344;SDS011;10330;48.816;9.278;2022-12-08T02:22:22;16.67;;;8.53;;
20344;SDS011;10330;48.816;9.278;2022-12-08T02:25:02;17.53;;;9.27;;
20344;SDS011;10330;48.816;9.278;2022-12-08T02:36:28;15.90;;;7.73;;
20344;SDS011;10330;48.816;9.278;2022-12-08T02:39:40;14.23;;;8.37;;
20344;SDS011;10330;48.816;9.278;2022-12-08T02:42:16;16.63;;;8.60;;
20344;SDS011;10330;48.816;9.278;2022-12-08T02:44:55;16.73;;;8.43;;
20344;SDS011;10330;48.816;9.278;2022-12-08T02:47:28;16.43;;;8.57;;
20344;SDS011;10330;48.816;9.278;2022-12-08T02:49:57;15.40;;;8.43;;
20344;SDS011;10330;48.816;9.278;2022-12-08T02:55:00;17.20;;;7.63;;
20344;SDS011;10330;48.816;9.278;2022-12-08T03:05:52;15.20;;;7.43;;
20344;SDS011;10330;48.816;9.278;2022-12-08T03:08:22;10.20;;;6.10;;
20344;SDS011;10330;48.816;9.278;2022-12-08T03:11:09;19.00;;;6.83;;
20344;SDS011;10330;48.816;9.278;2022-12-08T03:13:44;12.40;;;7.13;;
20344;SDS011;10330;48.816;9.278;2022-12-08T03:16:24;11.73;;;6.63;;
20344;SDS011;10330;48.816;9.278;2022-12-08T03:18:58;13.70;;;6.53;;
20344;SDS011;10330;48.816;9.278;2022-12-08T03:21:28;11.77;;;7.17;;
20344;SDS011;10330;48.816;9.278;2022-12-08T03:23:56;14.63;;;6.97;;
20344;SDS011;10330;48.816;9.278;2022-12-08T03:26:29;34.17;;;14.70;;
20344;SDS011;10330;48.816;9.278;2022-12-08T03:29:06;16.60;;;8.03;;
20344;SDS011;10330;48.816;9.278;2022-12-08T03:31:33;14.97;;;7.17;;
20344;SDS011;10330;48.816;9.278;2022-12-08T03:34:06;11.13;;;5.97;;
20344;SDS011;10330;48.816;9.278;2022-12-08T03:36:35;38.27;;;15.30;;
20344;SDS011;10330;48.816;9.278;2022-12-08T03:39:02;15.20;;;7.17;;
20344;SDS011;10330;48.816;9.278;2022-12-08T03:41:28;12.00;;;7.17;;
20344;SDS011;10330;48.816;9.278;2022-12-08T03:43:55;12.00;;;6.90;;
20344;SDS011;10330;48.816;9.278;2022-12-08T03:46:27;20.97;;;7.43;;
20344;SDS011;10330;48.816;9.278;2022-12-08T03:48:55;36.80;;;14.27;;
20344;SDS011;10330;48.816;9.278;2022-12-08T03:51:22;28.13;;;12.53;;
20344;SDS011;10330;48.816;9.278;2022-12-08T03:53:49;15.47;;;8.57;;
20344;SDS011;10330;48.816;9.278;2022-12-08T03:56:29;27.07;;;12.57;;
20344;SDS011;10330;48.816;9.278;2022-12-08T03:58:57;16.80;;;8.90;;
20344;SDS011;10330;48.816;9.278;2022-12-08T04:01:24;12.90;;;7.33;;
20344;SDS011;10330;48.816;9.278;2022-12-08T04:03:52;12.87;;;7.37;;
20344;SDS011;10330;48.816;9.278;2022-12-08T04:06:19;15.73;;;7.80;;
20344;SDS011;10330;48.816;9.278;2022-12-08T04:08:46;17.13;;;7.70;;
20344;SDS011;10330;48.816;9.278;2022-12-08T04:11:13;10.63;;;6.80;;
20344;SDS011;10330;48.816;9.278;2022-12-08T04:13:40;11.73;;;6.70;;
20344;SDS011;10330;48.816;9.278;2022-12-08T04:16:07;9.93;;;5.70;;
20344;SDS011;10330;48.816;9.278;2022-12-08T04:18:39;13.63;;;6.77;;
20344;SDS011;10330;48.816;9.278;2022-12-08T04:21:05;15.47;;;7.60;;
20344;SDS011;10330;48.816;9.278;2022-12-08T04:23:31;11.47;;;7.20;;
20344;SDS011;10330;48.816;9.278;2022-12-08T04:25:57;18.20;;;7.00;;
20344;SDS011;10330;48.816;9.278;2022-12-08T04:28:24;11.03;;;6.80;;
20344;SDS011;10330;48.816;9.278;2022-12-08T04:30:50;15.33;;;6.80;;
20344;SDS011;10330;48.816;9.278;2022-12-08T04:33:16;13.60;;;7.37;;
20344;SDS011;10330;48.816;9.278;2022-12-08T04:35:42;13.60;;;6.80;;
20344;SDS011;10330;48.816;9.278;2022-12-08T04:38:09;13.40;;;7.43;;
20344;SDS011;10330;48.816;9.278;2022-12-08T04:40:35;14.30;;;7.23;;
20344;SDS011;10330;48.816;9.278;2022-12-08T04:43:02;15.27;;;7.17;;
20344;SDS011;10330;48.816;9.278;2022-12-08T04:45:28;12.40;;;7.07;;
20344;SDS011;10330;48.816;9.278;2022-12-08T04:47:54;13.10;;;6.43;;
20344;SDS011;10330;48.816;9.278;2022-12-08T04:50:21;11.80;;;6.23;;
20344;SDS011;10330;48.816;9.278;2022-12-08T04:52:47;12.77;;;5.77;;
20344;SDS011;10330;48.816;9.278;2022-12-08T04:55:13;14.07;;;7.37;;
20344;SDS011;10330;48.816;9.278;2022-12-08T04:58:15;12.40;;;7.23;;
20344;SDS011;10330;48.816;9.278;2022-12-08T05:01:06;12.23;;;7.53;;
20344;SDS011;10330;48.816;9.278;2022-12-08T05:03:37;13.10;;;7.07;;
20344;SDS011;10330;48.816;9.278;2022-12-08T05:06:13;11.47;;;6.70;;
20344;SDS011;10330;48.816;9.278;2022-12-08T05:12:18;14.20;;;6.97;;
20344;SDS011;10330;48.816;9.278;2022-12-08T05:16:09;13.33;;;6.57;;
20344;SDS011;10330;48.816;9.278;2022-12-08T05:18:39;18.57;;;6.73;;
20344;SDS011;10330;48.816;9.278;2022-12-08T05:21:06;12.90;;;7.10;;
20344;SDS011;10330;48.816;9.278;2022-12-08T05:23:33;16.37;;;6.80;;
20344;SDS011;10330;48.816;9.278;2022-12-08T05:26:00;14.67;;;7.33;;
20344;SDS011;10330;48.816;9.278;2022-12-08T05:28:26;13.97;;;7.20;;
20344;SDS011;10330;48.816;9.278;2022-12-08T05:30:52;13.97;;;6.73;;
20344;SDS011;10330;48.816;9.278;2022-12-08T05:33:18;13.70;;;7.97;;
20344;SDS011;10330;48.816;9.278;2022-12-08T05:35:45;22.30;;;7.70;;
20344;SDS011;10330;48.816;9.278;2022-12-08T05:38:11;13.60;;;7.10;;
20344;SDS011;10330;48.816;9.278;2022-12-08T05:40:38;18.97;;;7.13;;
20344;SDS011;10330;48.816;9.278;2022-12-08T05:43:04;12.77;;;7.13;;
20344;SDS011;10330;48.816;9.278;2022-12-08T05:45:30;12.37;;;7.43;;
20344;SDS011;10330;48.816;9.278;2022-12-08T05:47:57;14.27;;;7.13;;
20344;SDS011;10330;48.816;9.278;2022-12-08T05:50:23;15.93;;;6.63;;
20344;SDS011;10330;48.816;9.278;2022-12-08T05:52:49;15.30;;;7.23;;
20344;SDS011;10330;48.816;9.278;2022-12-08T05:55:16;12.07;;;7.23;;
20344;SDS011;10330;48.816;9.278;2022-12-08T05:57:42;14.30;;;7.57;;
20344;SDS011;10330;48.816;9.278;2022-12-08T06:00:08;17.37;;;7.87;;
20344;SDS011;10330;48.816;9.278;2022-12-08T06:02:38;15.83;;;8.33;;
20344;SDS011;10330;48.816;9.278;2022-12-08T06:05:04;15.27;;;7.80;;
20344;SDS011;10330;48.816;9.278;2022-12-08T06:07:30;14.43;;;7.27;;
20344;SDS011;10330;48.816;9.278;2022-12-08T06:09:57;12.90;;;6.73;;
20344;SDS011;10330;48.816;9.278;2022-12-08T06:12:23;15.60;;;7.60;;
20344;SDS011;10330;48.816;9.278;2022-12-08T06:14:49;20.20;;;8.17;;
20344;SDS011;10330;48.816;9.278;2022-12-08T06:17:16;15.70;;;7.97;;
20344;SDS011;10330;48.816;9.278;2022-12-08T06:19:42;16.17;;;7.53;;
20344;SDS011;10330;48.816;9.278;2022-12-08T06:22:08;14.77;;;7.03;;
20344;SDS011;10330;48.816;9.278;2022-12-08T06:24:35;11.37;;;6.47;;
20344;SDS011;10330;48.816;9.278;2022-12-08T06:27:01;14.33;;;7.07;;
20344;SDS011;10330;48.816;9.278;2022-12-08T06:29:27;19.17;;;7.67;;
20344;SDS011;10330;48.816;9.278;2022-12-08T06:31:53;11.67;;;6.50;;
20344;SDS011;10330;48.816;9.278;2022-12-08T06:34:20;16.87;;;8.63;;
20344;SDS011;10330;48.816;9.278;2022-12-08T06:36:46;18.10;;;8.90;;
20344;SDS011;10330;48.816;9.278;2022-12-08T06:39:12;15.67;;;8.50;;
20344;SDS011;10330;48.816;9.278;2022-12-08T06:41:38;23.03;;;8.57;;
20344;SDS011;10330;48.816;9.278;2022-12-08T06:44:24;16.10;;;7.53;;
20344;SDS011;10330;48.816;9.278;2022-12-08T06:46:51;16.77;;;7.40;;
20344;SDS011;10330;48.816;9.278;2022-12-08T06:49:17;17.20;;;8.90;;
20344;SDS011;10330;48.816;9.278;2022-12-08T06:51:43;17.13;;;7.63;;
20344;SDS011;10330;48.816;9.278;2022-12-08T06:54:09;14.87;;;7.83;;
20344;SDS011;10330;48.816;9.278;2022-12-08T06:56:36;16.67;;;7.13;;
20344;SDS011;10330;48.816;9.278;2022-12-08T06:59:02;20.30;;;9.13;;
20344;SDS011;10330;48.816;9.278;2022-12-08T07:01:28;12.67;;;7.33;;
20344;SDS011;10330;48.816;9.278;2022-12-08T07:03:55;16.33;;;8.57;;
20344;SDS011;10330;48.816;9.278;2022-12-08T07:06:22;16.97;;;7.40;;
20344;SDS011;10330;48.816;9.278;2022-12-08T07:08:49;19.70;;;8.67;;
20344;SDS011;10330;48.816;9.278;2022-12-08T07:11:16;12.53;;;7.40;;
20344;SDS011;10330;48.816;9.278;2022-12-08T07:13:43;15.63;;;8.13;;
20344;SDS011;10330;48.816;9.278;2022-12-08T07:16:10;17.80;;;8.37;;
20344;SDS011;10330;48.816;9.278;2022-12-08T07:18:37;14.87;;;7.47;;
20344;SDS011;10330;48.816;9.278;2022-12-08T07:21:08;17.00;;;8.13;;
20344;SDS011;10330;48.816;9.278;2022-12-08T07:23:44;17.43;;;8.47;;
20344;SDS011;10330;48.816;9.278;2022-12-08T07:26:11;12.53;;;7.27;;
20344;SDS011;10330;48.816;9.278;2022-12-08T07:28:41;15.57;;;7.60;;
20344;SDS011;10330;48.816;9.278;2022-12-08T07:31:15;14.97;;;6.83;;
20344;SDS011;10330;48.816;9.278;2022-12-08T07:33:44;13.93;;;7.07;;
20344;SDS011;10330;48.816;9.278;2022-12-08T07:36:10;23.47;;;10.73;;
20344;SDS011;10330;48.816;9.278;2022-12-08T07:38:37;25.43;;;10.23;;
20344;SDS011;10330;48.816;9.278;2022-12-08T07:41:03;28.00;;;11.50;;
20344;SDS011;10330;48.816;9.278;2022-12-08T07:43:30;21.17;;;9.47;;
20344;SDS011;10330;48.816;9.278;2022-12-08T07:45:56;17.77;;;8.33;;
20344;SDS011;10330;48.816;9.278;2022-12-08T07:48:22;17.67;;;8.97;;
20344;SDS011;10330;48.816;9.278;2022-12-08T07:50:49;17.10;;;8.27;;
20344;SDS011;10330;48.816;9.278;2022-12-08T07:53:15;17.07;;;8.37;;
20344;SDS011;10330;48.816;9.278;2022-12-08T07:55:42;13.33;;;7.67;;
20344;SDS011;10330;48.816;9.278;2022-12-08T07:58:09;13.47;;;7.70;;
20344;SDS011;10330;48.816;9.278;2022-12-08T08:00:36;14.77;;;7.97;;
20344;SDS011;10330;48.816;9.278;2022-12-08T08:03:02;15.13;;;7.53;;
20344;SDS011;10330;48.816;9.278;2022-12-08T08:05:29;13.43;;;7.77;;
20344;SDS011;10330;48.816;9.278;2022-12-08T08:07:55;16.13;;;8.10;;
20344;SDS011;10330;48.816;9.278;2022-12-08T08:10:21;18.17;;;9.53;;
20344;SDS011;10330;48.816;9.278;2022-12-08T08:12:53;14.17;;;7.57;;
20344;SDS011;10330;48.816;9.278;2022-12-08T08:15:19;18.90;;;8.30;;
20344;SDS011;10330;48.816;9.278;2022-12-08T08:17:47;17.67;;;8.63;;
20344;SDS011;10330;48.816;9.278;2022-12-08T08:20:17;21.43;;;7.80;;
20344;SDS011;10330;48.816;9.278;2022-12-08T08:22:45;17.00;;;8.27;;
20344;SDS011;10330;48.816;9.278;2022-12-08T08:25:12;17.33;;;8.90;;
20344;SDS011;10330;48.816;9.278;2022-12-08T08:27:39;16.37;;;8.67;;
20344;SDS011;10330;48.816;9.278;2022-12-08T08:30:06;17.87;;;8.37;;
20344;SDS011;10330;48.816;9.278;2022-12-08T08:32:34;15.60;;;7.60;;
20344;SDS011;10330;48.816;9.278;2022-12-08T08:35:01;15.70;;;8.43;;
20344;SDS011;10330;48.816;9.278;2022-12-08T08:37:38;21.53;;;8.33;;
20344;SDS011;10330;48.816;9.278;2022-12-08T08:40:13;15.00;;;7.47;;
20344;SDS011;10330;48.816;9.278;2022-12-08T08:42:40;15.23;;;7.53;;
20344;SDS011;10330;48.816;9.278;2022-12-08T08:45:06;15.00;;;9.03;;
20344;SDS011;10330;48.816;9.278;2022-12-08T08:47:33;15.90;;;7.80;;
20344;SDS011;10330;48.816;9.278;2022-12-08T08:49:59;19.20;;;8.47;;
20344;SDS011;10330;48.816;9.278;2022-12-08T08:52:25;18.70;;;8.90;;
20344;SDS011;10330;48.816;9.278;2022-12-08T08:54:51;15.93;;;8.87;;
20344;SDS011;10330;48.816;9.278;2022-12-08T08:57:18;15.97;;;7.83;;
20344;SDS011;10330;48.816;9.278;2022-12-08T08:59:44;18.17;;;9.00;;
20344;SDS011;10330;48.816;9.278;2022-12-08T09:02:14;14.40;;;7.93;;
20344;SDS011;10330;48.816;9.278;2022-12-08T09:04:42;22.30;;;8.17;;
20344;SDS011;10330;48.816;9.278;2022-12-08T09:07:09;23.43;;;9.10;;
20344;SDS011;10330;48.816;9.278;2022-12-08T09:09:36;16.30;;;8.37;;
20344;SDS011;10330;48.816;9.278;2022-12-08T09:12:03;19.93;;;9.57;;
20344;SDS011;10330;48.816;9.278;2022-12-08T09:14:30;15.83;;;8.27;;
20344;SDS011;10330;48.816;9.278;2022-12-08T09:16:56;14.60;;;8.33;;
20344;SDS011;10330;48.816;9.278;2022-12-08T09:19:22;15.50;;;7.87;;
20344;SDS011;10330;48.816;9.278;2022-12-08T09:21:49;11.83;;;7.13;;
20344;SDS011;10330;48.816;9.278;2022-12-08T09:24:15;13.00;;;7.47;;
20344;SDS011;10330;48.816;9.278;2022-12-08T09:26:42;12.00;;;7.23;;
20344;SDS011;10330;48.816;9.278;2022-12-08T09:29:09;11.20;;;7.40;;
20344;SDS011;10330;48.816;9.278;2022-12-08T09:31:37;14.43;;;8.37;;
20344;SDS011;10330;48.816;9.278;2022-12-08T09:34:04;15.07;;;8.17;;
20344;SDS011;10330;48.816;9.278;2022-12-08T09:36:31;15.23;;;7.60;;
20344;SDS011;10330;48.816;9.278;2022-12-08T09:38:57;14.50;;;7.60;;
20344;SDS011;10330;48.816;9.278;2022-12-08T09:41:43;11.83;;;6.87;;
20344;SDS011;10330;48.816;9.278;2022-12-08T09:46:44;12.43;;;7.30;;
20344;SDS011;10330;48.816;9.278;2022-12-08T09:49:14;14.00;;;7.30;;
20344;SDS011;10330;48.816;9.278;2022-12-08T09:51:43;15.30;;;7.13;;
20344;SDS011;10330;48.816;9.278;2022-12-08T09:54:20;13.77;;;7.20;;
20344;SDS011;10330;48.816;9.278;2022-12-08T09:56:56;11.23;;;6.23;;
20344;SDS011;10330;48.816;9.278;2022-12-08T10:01:54;11.33;;;6.43;;
20344;SDS011;10330;48.816;9.278;2022-12-08T10:04:36;17.37;;;7.37;;
20344;SDS011;10330;48.816;9.278;2022-12-08T10:10:03;9.27;;;5.53;;
20344;SDS011;10330;48.816;9.278;2022-12-08T10:12:42;10.73;;;6.60;;
20344;SDS011;10330;48.816;9.278;2022-12-08T10:15:35;10.00;;;6.00;;
20344;SDS011;10330;48.816;9.278;2022-12-08T10:18:09;10.47;;;6.30;;
20344;SDS011;10330;48.816;9.278;2022-12-08T10:20:57;8.75;;;5.50;;
20344;SDS011;10330;48.816;9.278;2022-12-08T10:23:39;10.48;;;5.95;;
20344;SDS011;10330;48.816;9.278;2022-12-08T10:26:13;8.75;;;5.53;;
20344;SDS011;10330;48.816;9.278;2022-12-08T10:28:47;5.88;;;3.95;;
20344;SDS011;10330;48.816;9.278;2022-12-08T10:31:20;7.13;;;4.30;;
20344;SDS011;10330;48.816;9.278;2022-12-08T10:33:56;8.27;;;4.88;;
20344;SDS011;10330;48.816;9.278;2022-12-08T10:37:10;7.50;;;4.85;;
20344;SDS011;10330;48.816;9.278;2022-12-08T10:39:31;10.90;;;5.32;;
20344;SDS011;10330;48.816;9.278;2022-12-08T10:42:10;13.68;;;4.90;;
20344;SDS011;10330;48.816;9.278;2022-12-08T10:47:19;6.22;;;4.50;;
20344;SDS011;10330;48.816;9.278;2022-12-08T10:49:47;7.95;;;5.75;;
20344;SDS011;10330;48.816;9.278;2022-12-08T10:52:58;8.00;;;4.78;;
20344;SDS011;10330;48.816;9.278;2022-12-08T10:55:40;8.18;;;4.88;;
20344;SDS011;10330;48.816;9.278;2022-12-08T10:58:25;6.88;;;4.13;;
20344;SDS011;10330;48.816;9.278;2022-12-08T11:03:48;6.78;;;4.47;;
20344;SDS011;10330;48.816;9.278;2022-12-08T11:06:18;10.10;;;4.82;;
20344;SDS011;10330;48.816;9.278;2022-12-08T11:08:51;8.38;;;5.03;;
20344;SDS011;10330;48.816;9.278;2022-12-08T11:11:20;6.88;;;4.30;;
20344;SDS011;10330;48.816;9.278;2022-12-08T11:14:03;9.02;;;4.95;;
20344;SDS011;10330;48.816;9.278;2022-12-08T11:16:32;8.40;;;5.00;;
20344;SDS011;10330;48.816;9.278;2022-12-08T11:19:00;5.18;;;4.07;;
20344;SDS011;10330;48.816;9.278;2022-12-08T11:21:35;6.32;;;4.22;;
20344;SDS011;10330;48.816;9.278;2022-12-08T11:24:17;8.15;;;4.63;;
20344;SDS011;10330;48.816;9.278;2022-12-08T11:26:53;7.70;;;4.32;;
20344;SDS011;10330;48.816;9.278;2022-12-08T11:29:27;9.93;;;4.20;;
20344;SDS011;10330;48.816;9.278;2022-12-08T11:31:59;7.05;;;4.65;;
20344;SDS011;10330;48.816;9.278;2022-12-08T11:37:02;6.07;;;3.72;;
20344;SDS011;10330;48.816;9.278;2022-12-08T11:39:31;7.78;;;3.67;;
20344;SDS011;10330;48.816;9.278;2022-12-08T11:42:01;4.63;;;3.60;;
20344;SDS011;10330;48.816;9.278;2022-12-08T11:47:12;4.85;;;3.58;;
20344;SDS011;10330;48.816;9.278;2022-12-08T11:49:40;5.97;;;4.10;;
20344;SDS011;10330;48.816;9.278;2022-12-08T11:52:17;6.20;;;3.72;;
20344;SDS011;10330;48.816;9.278;2022-12-08T11:58:03;8.80;;;4.72;;
20344;SDS011;10330;48.816;9.278;2022-12-08T12:00:37;5.85;;;4.22;;
20344;SDS011;10330;48.816;9.278;2022-12-08T12:03:08;7.65;;;4.25;;
20344;SDS011;10330;48.816;9.278;2022-12-08T12:09:00;6.88;;;4.40;;
20344;SDS011;10330;48.816;9.278;2022-12-08T12:11:40;6.78;;;4.45;;
20344;SDS011;10330;48.816;9.278;2022-12-08T12:19:52;7.05;;;4.53;;
20344;SDS011;10330;48.816;9.278;2022-12-08T12:22:20;7.47;;;4.63;;
20344;SDS011;10330;48.816;9.278;2022-12-08T12:24:49;8.02;;;3.97;;
20344;SDS011;10330;48.816;9.278;2022-12-08T12:27:21;5.00;;;3.97;;
20344;SDS011;10330;48.816;9.278;2022-12-08T12:30:04;6.15;;;4.25;;
20344;SDS011;10330;48.816;9.278;2022-12-08T12:32:44;8.57;;;4.05;;
20344;SDS011;10330;48.816;9.278;2022-12-08T12:36:01;3.70;;;3.40;;
20344;SDS011;10330;48.816;9.278;2022-12-08T12:38:15;4.78;;;3.78;;
20344;SDS011;10330;48.816;9.278;2022-12-08T12:41:28;6.68;;;4.07;;
20344;SDS011;10330;48.816;9.278;2022-12-08T12:46:39;6.75;;;3.42;;
20344;SDS011;10330;48.816;9.278;2022-12-08T12:54:41;6.07;;;3.72;;
20344;SDS011;10330;48.816;9.278;2022-12-08T12:59:42;4.70;;;3.55;;
20344;SDS011;10330;48.816;9.278;2022-12-08T13:07:56;4.68;;;3.00;;
20344;SDS011;10330;48.816;9.278;2022-12-08T13:20:49;3.95;;;3.53;;
20344;SDS011;10330;48.816;9.278;2022-12-08T13:34:16;12.27;;;4.10;;
20344;SDS011;10330;48.816;9.278;2022-12-08T13:37:01;5.80;;;3.35;;
20344;SDS011;10330;48.816;9.278;2022-12-08T13:44:47;4.30;;;3.00;;
20344;SDS011;10330;48.816;9.278;2022-12-08T13:47:24;4.45;;;2.47;;
20344;SDS011;10330;48.816;9.278;2022-12-08T13:55:24;3.03;;;2.75;;
20344;SDS011;10330;48.816;9.278;2022-12-08T13:57:54;3.85;;;2.60;;
20344;SDS011;10330;48.816;9.278;2022-12-08T14:00:22;3.10;;;2.80;;
20344;SDS011;10330;48.816;9.278;2022-12-08T14:02:54;4.43;;;3.13;;
20344;SDS011;10330;48.816;9.278;2022-12-08T14:05:23;3.17;;;2.77;;
20344;SDS011;10330;48.816;9.278;2022-12-08T14:07:51;3.38;;;2.70;;
20344;SDS011;10330;48.816;9.278;2022-12-08T14:12:51;3.67;;;3.08;;
20344;SDS011;10330;48.816;9.278;2022-12-08T14:15:24;4.88;;;3.28;;
20344;SDS011;10330;48.816;9.278;2022-12-08T14:17:54;5.25;;;3.47;;
20344;SDS011;10330;48.816;9.278;2022-12-08T14:22:55;6.57;;;3.72;;
20344;SDS011;10330;48.816;9.278;2022-12-08T14:25:25;7.03;;;3.42;;
20344;SDS011;10330;48.816;9.278;2022-12-08T14:27:57;4.55;;;3.83;;
20344;SDS011;10330;48.816;9.278;2022-12-08T14:30:27;16.15;;;8.00;;
20344;SDS011;10330;48.816;9.278;2022-12-08T14:33:01;11.00;;;3.63;;
20344;SDS011;10330;48.816;9.278;2022-12-08T14:35:41;11.38;;;4.20;;
20344;SDS011;10330;48.816;9.278;2022-12-08T14:38:14;5.60;;;3.50;;
20344;SDS011;10330;48.816;9.278;2022-12-08T14:40:43;4.18;;;3.67;;
20344;SDS011;10330;48.816;9.278;2022-12-08T14:43:14;6.38;;;3.40;;
20344;SDS011;10330;48.816;9.278;2022-12-08T14:45:45;4.10;;;3.38;;
20344;SDS011;10330;48.816;9.278;2022-12-08T14:59:18;7.35;;;3.33;;
20344;SDS011;10330;48.816;9.278;2022-12-08T15:01:50;5.40;;;3.65;;
20344;SDS011;10330;48.816;9.278;2022-12-08T15:04:37;3.45;;;3.15;;
20344;SDS011;10330;48.816;9.278;2022-12-08T15:07:13;5.07;;;3.85;;
20344;SDS011;10330;48.816;9.278;2022-12-08T15:09:43;8.18;;;4.03;;
20344;SDS011;10330;48.816;9.278;2022-12-08T15:14:40;4.85;;;3.15;;
20344;SDS011;10330;48.816;9.278;2022-12-08T15:22:52;4.70;;;3.58;;
20344;SDS011;10330;48.816;9.278;2022-12-08T15:25:20;7.35;;;3.10;;
20344;SDS011;10330;48.816;9.278;2022-12-08T15:27:49;6.78;;;4.45;;
20344;SDS011;10330;48.816;9.278;2022-12-08T15:30:17;8.18;;;3.38;;
20344;SDS011;10330;48.816;9.278;2022-12-08T15:32:47;4.57;;;3.27;;
20344;SDS011;10330;48.816;9.278;2022-12-08T15:35:16;7.67;;;4.27;;
20344;SDS011;10330;48.816;9.278;2022-12-08T15:37:43;8.48;;;3.60;;
20344;SDS011;10330;48.816;9.278;2022-12-08T15:40:14;6.10;;;3.63;;
20344;SDS011;10330;48.816;9.278;2022-12-08T15:42:43;5.47;;;4.30;;
20344;SDS011;10330;48.816;9.278;2022-12-08T15:45:12;8.13;;;3.53;;
20344;SDS011;10330;48.816;9.278;2022-12-08T15:47:40;6.43;;;3.60;;
20344;SDS011;10330;48.816;9.278;2022-12-08T15:50:14;7.45;;;3.97;;
20344;SDS011;10330;48.816;9.278;2022-12-08T15:52:42;9.07;;;4.60;;
20344;SDS011;10330;48.816;9.278;2022-12-08T15:55:15;8.00;;;4.70;;
20344;SDS011;10330;48.816;9.278;2022-12-08T15:57:46;9.30;;;4.30;;
20344;SDS011;10330;48.816;9.278;2022-12-08T16:02:47;5.73;;;3.50;;
20344;SDS011;10330;48.816;9.278;2022-12-08T16:05:14;6.80;;;3.90;;
20344;SDS011;10330;48.816;9.278;2022-12-08T16:07:40;6.63;;;3.97;;
20344;SDS011;10330;48.816;9.278;2022-12-08T16:10:07;7.67;;;4.73;;
20344;SDS011;10330;48.816;9.278;2022-12-08T16:12:42;9.00;;;4.35;;
20344;SDS011;10330;48.816;9.278;2022-12-08T16:15:28;13.40;;;5.20;;
20344;SDS011;10330;48.816;9.278;2022-12-08T16:17:56;10.73;;;5.50;;
20344;SDS011;10330;48.816;9.278;2022-12-08T16:20:23;7.13;;;4.38;;
20344;SDS011;10330;48.816;9.278;2022-12-08T16:22:49;5.57;;;4.25;;
20344;SDS011;10330;48.816;9.278;2022-12-08T16:25:16;5.83;;;3.80;;
20344;SDS011;10330;48.816;9.278;2022-12-08T16:27:43;16.48;;;4.57;;
20344;SDS011;10330;48.816;9.278;2022-12-08T16:30:14;6.60;;;4.50;;
20344;SDS011;10330;48.816;9.278;2022-12-08T16:32:42;5.68;;;3.78;;
20344;SDS011;10330;48.816;9.278;2022-12-08T16:35:12;7.10;;;4.13;;
20344;SDS011;10330;48.816;9.278;2022-12-08T16:37:39;12.77;;;5.05;;
20344;SDS011;10330;48.816;9.278;2022-12-08T16:40:10;12.90;;;4.55;;
20344;SDS011;10330;48.816;9.278;2022-12-08T16:42:48;8.50;;;4.97;;
20344;SDS011;10330;48.816;9.278;2022-12-08T16:47:47;8.82;;;4.85;;
20344;SDS011;10330;48.816;9.278;2022-12-08T16:50:15;6.20;;;4.10;;
20344;SDS011;10330;48.816;9.278;2022-12-08T16:52:54;8.02;;;4.93;;
20344;SDS011;10330;48.816;9.278;2022-12-08T16:55:23;11.23;;;4.60;;
20344;SDS011;10330;48.816;9.278;2022-12-08T16:57:49;7.72;;;4.97;;
20344;SDS011;10330;48.816;9.278;2022-12-08T17:00:17;11.05;;;4.63;;
20344;SDS011;10330;48.816;9.278;2022-12-08T17:02:44;7.00;;;3.90;;
20344;SDS011;10330;48.816;9.278;2022-12-08T17:05:11;7.28;;;4.38;;
20344;SDS011;10330;48.816;9.278;2022-12-08T17:07:40;9.77;;;4.97;;
20344;SDS011;10330;48.816;9.278;2022-12-08T17:10:07;8.33;;;4.47;;
20344;SDS011;10330;48.816;9.278;2022-12-08T17:12:35;8.27;;;4.57;;
20344;SDS011;10330;48.816;9.278;2022-12-08T17:15:02;5.68;;;4.18;;
20344;SDS011;10330;48.816;9.278;2022-12-08T17:17:34;9.80;;;4.50;;
20344;SDS011;10330;48.816;9.278;2022-12-08T17:20:05;8.07;;;4.82;;